Time;durP1;ratioP1;P1;durP2;ratioP2;P2;SDS_P1;SDS_P2;PMS_P1;PMS_P2;Temp;Humidity;BMP_temperature;BMP_pressure;BME280_temperature;BME280_humidity;BME280_pressure;Samples;Min_cycle;Max_cycle;Signal;HPM_P1;HPM_P2
2022/08/17 00:00:56;;;;;;;;;;;;;;;-145.18;100.00;46660.41;5093366;28;19912;-73
2022/08/17 00:03:22;;;;;;;;;;;;;;;-145.18;100.00;46660.41;5093587;28;20376;-73
2022/08/17 00:05:48;;;;;;;;;;;;;;;-145.18;100.00;46660.41;5093439;28;20463;-74
2022/08/17 00:08:14;;;;;;;;;;;;;;;-145.18;100.00;46660.41;5093292;28;19923;-73
2022/08/17 00:10:40;;;;;;;;;;;;;;;-145.18;100.00;46660.41;5093358;28;19916;-74
2022/08/17 00:13:06;;;;;;;;;;;;;;;-145.18;100.00;46660.41;5093181;28;19926;-74
2022/08/17 00:15:32;;;;;;;;;;;;;;;-145.18;100.00;46660.41;5093293;28;19982;-75
2022/08/17 00:17:57;;;;;;;;;;;;;;;-145.18;100.00;46660.41;5093399;28;19920;-73
2022/08/17 00:20:22;;;;;;;;;;;;;;;-145.18;100.00;46660.41;5092723;28;20010;-75
2022/08/17 00:22:48;;;;;;;;;;;;;;;-145.18;100.00;46660.41;5092950;28;20015;-74
2022/08/17 00:25:15;;;;;;;;;;;;;;;-145.18;100.00;46660.41;5092985;28;19926;-75
2022/08/17 00:27:40;;;;;;;;;;;;;;;-145.18;100.00;46660.41;5093313;28;19912;-74
2022/08/17 00:30:07;;;;;;;;;;;;;;;-145.18;100.00;46660.41;5092641;28;19920;-73
2022/08/17 00:32:40;;;;;;;;;;;;;;;-145.18;100.00;46660.41;5092428;28;19920;-74
2022/08/17 00:35:07;;;;;;;;;;;;;;;-145.18;100.00;46660.41;5092761;28;19920;-74
2022/08/17 00:37:32;;;;;;;;;;;;;;;-145.18;100.00;46660.41;5093036;28;20380;-74
2022/08/17 00:39:57;;;;;;;;;;;;;;;-145.18;100.00;46660.41;5092752;28;19916;-74
2022/08/17 00:42:22;;;;;;;;;;;;;;;-145.18;100.00;46660.41;5092580;28;19916;-74
2022/08/17 00:44:48;;;;;;;;;;;;;;;-145.18;100.00;46660.41;5092595;28;19924;-74
2022/08/17 00:47:13;;;;;;;;;;;;;;;-145.18;100.00;46660.41;5092464;28;20038;-74
2022/08/17 00:49:38;;;;;;;;;;;;;;;-145.18;100.00;46660.41;5092745;28;19959;-74
2022/08/17 00:52:07;;;;;;;;;;;;;;;-145.18;100.00;46660.41;5092477;28;20004;-73
2022/08/17 00:54:34;;;;;;;;;;;;;;;-145.18;100.00;46660.41;5092370;28;19916;-74
2022/08/17 00:57:08;;;;;;;;;;;;;;;-145.18;100.00;46660.41;5075640;28;19971;-74
2022/08/17 00:59:36;;;;;;;;;;;;;;;-145.18;100.00;46660.41;5072460;28;20050;-74
2022/08/17 01:02:02;;;;;;;;;;;;;;;-145.18;100.00;46660.41;5071995;28;20003;-74
2022/08/17 01:04:28;;;;;;;;;;;;;;;-145.18;100.00;46660.41;5072092;28;20007;-74
2022/08/17 01:06:53;;;;;;;;;;;;;;;-145.18;100.00;46660.41;5072063;28;19966;-74
2022/08/17 01:09:19;;;;;;;;;;;;;;;-145.18;100.00;46660.41;5072261;28;20394;-67
2022/08/17 01:11:45;;;;;;;;;;;;;;;-145.18;100.00;46660.41;5071995;28;19928;-68
2022/08/17 01:14:10;;;;;;;;;;;;;;;-145.18;100.00;46660.41;5071662;28;19920;-70
2022/08/17 01:16:36;;;;;;;;;;;;;;;-145.18;100.00;46654.53;5072063;28;20385;-70
2022/08/17 01:19:09;;;;;;;;;;;;;;;-145.18;100.00;46656.50;5071760;28;20704;-71
2022/08/17 01:21:55;;;;;;;;;;;;;;;-145.18;100.00;46656.50;5086150;28;19924;-71
2022/08/17 01:24:20;;;;;;;;;;;;;;;-145.18;100.00;46652.59;5088814;28;20083;-71
2022/08/17 01:26:46;;;;;;;;;;;;;;;-145.18;100.00;46656.50;5091923;28;19916;-71
2022/08/17 01:29:11;;;;;;;;;;;;;;;-145.18;100.00;46656.50;5091610;28;20132;-71
2022/08/17 01:31:40;;;;;;;;;;;;;;;-145.18;100.00;46654.53;5092244;28;19959;-73
2022/08/17 01:34:07;;;;;;;;;;;;;;;-145.18;100.00;46658.44;5091396;28;19959;-73
2022/08/17 01:36:33;;;;;;;;;;;;;;;-145.18;100.00;46642.81;5091928;28;19916;-71
2022/08/17 01:38:59;;;;;;;;;;;;;;;-145.18;100.00;46652.59;5091860;28;20006;-71
2022/08/17 01:41:24;;;;;;;;;;;;;;;-145.18;100.00;46654.53;5091178;28;19923;-71
2022/08/17 01:43:54;;;;;;;;;;;;;;;-145.18;100.00;46654.53;5090743;28;19931;-70
2022/08/17 01:46:25;;;;;;;;;;;;;;;-145.18;100.00;46658.44;5091259;28;19999;-71
2022/08/17 01:48:51;;;;;;;;;;;;;;;-145.18;100.00;46656.50;5091318;28;20022;-71
2022/08/17 01:51:16;;;;;;;;;;;;;;;-145.18;100.00;46660.41;5091252;28;20011;-71
2022/08/17 01:53:46;;;;;;;;;;;;;;;-145.18;100.00;46654.53;5091669;28;20442;-71
2022/08/17 01:56:13;;;;;;;;;;;;;;;-145.18;100.00;46658.44;5090807;28;19923;-71
2022/08/17 01:58:39;;;;;;;;;;;;;;;-145.18;100.00;46660.41;5091539;28;19916;-71
2022/08/17 02:03:40;;;;;;;;;;;;;;;-145.18;100.00;46658.44;4878782;22;19936;-72
2022/08/17 02:06:06;;;;;;;;;;;;;;;-145.18;100.00;46660.41;5071250;28;19942;-72
2022/08/17 02:08:34;;;;;;;;;;;;;;;-145.18;100.00;46660.41;5070905;28;19924;-72
2022/08/17 02:11:00;;;;;;;;;;;;;;;-145.18;100.00;46660.41;5071061;28;19931;-72
2022/08/17 02:13:28;;;;;;;;;;;;;;;-145.18;100.00;46660.41;5070120;28;19924;-72
2022/08/17 02:15:53;;;;;;;;;;;;;;;-145.18;100.00;46660.41;5070680;28;19931;-72
2022/08/17 02:18:19;;;;;;;;;;;;;;;-145.18;100.00;46660.41;5070442;28;19925;-72
2022/08/17 02:20:44;;;;;;;;;;;;;;;-145.18;100.00;46660.41;5071157;28;19967;-73
2022/08/17 02:23:10;;;;;;;;;;;;;;;-145.18;100.00;46660.41;5070513;28;19920;-72
2022/08/17 02:25:37;;;;;;;;;;;;;;;-145.18;100.00;46660.41;5071254;28;19923;-73
2022/08/17 02:28:03;;;;;;;;;;;;;;;-145.18;100.00;46660.41;5070724;28;19965;-72
2022/08/17 02:30:28;;;;;;;;;;;;;;;-145.18;100.00;46660.41;5071361;28;20369;-72
2022/08/17 02:32:54;;;;;;;;;;;;;;;-145.18;100.00;46660.41;5070710;28;20376;-72
2022/08/17 02:35:21;;;;;;;;;;;;;;;-145.18;100.00;46660.41;5070475;28;19916;-72
2022/08/17 02:37:46;;;;;;;;;;;;;;;-145.18;100.00;46660.41;5070494;28;19932;-72
2022/08/17 02:40:12;;;;;;;;;;;;;;;-145.18;100.00;46660.41;5070829;28;19924;-72
2022/08/17 02:42:38;;;;;;;;;;;;;;;-145.18;100.00;46660.41;5070556;28;19924;-72
2022/08/17 02:45:05;;;;;;;;;;;;;;;-145.18;100.00;46660.41;5070607;28;20300;-73
2022/08/17 02:47:30;;;;;;;;;;;;;;;-145.18;100.00;46660.41;5070735;28;19984;-72
2022/08/17 02:49:56;;;;;;;;;;;;;;;-145.18;100.00;46660.41;5070772;28;19921;-72
2022/08/17 02:52:21;;;;;;;;;;;;;;;-145.18;100.00;46660.41;5070602;28;19920;-72
2022/08/17 02:54:47;;;;;;;;;;;;;;;-145.18;100.00;46660.41;5070261;28;20019;-72
2022/08/17 02:57:12;;;;;;;;;;;;;;;-145.18;100.00;46660.41;5070606;28;19928;-72
2022/08/17 02:59:38;;;;;;;;;;;;;;;-145.18;100.00;46660.41;5070962;28;19931;-72
2022/08/17 03:02:05;;;;;;;;;;;;;;;-145.18;100.00;46660.41;5069737;28;19917;-72
2022/08/17 03:04:30;;;;;;;;;;;;;;;-145.18;100.00;46660.41;5070897;28;19917;-72
2022/08/17 03:06:56;;;;;;;;;;;;;;;-145.18;100.00;46660.41;5070128;28;19931;-72
2022/08/17 03:09:21;;;;;;;;;;;;;;;-145.18;100.00;46660.41;5070771;28;19927;-73
2022/08/17 03:11:46;;;;;;;;;;;;;;;-145.18;100.00;46660.41;5070408;28;20011;-73
2022/08/17 03:14:11;;;;;;;;;;;;;;;-145.18;100.00;46660.41;5070770;28;20464;-73
2022/08/17 03:16:37;;;;;;;;;;;;;;;-145.18;100.00;46660.41;5070853;28;20360;-73
2022/08/17 03:19:02;;;;;;;;;;;;;;;-145.18;100.00;46660.41;5052065;28;19959;-75
2022/08/17 03:21:27;;;;;;;;;;;;;;;-145.18;100.00;46660.41;5070457;28;19916;-74
2022/08/17 03:23:52;;;;;;;;;;;;;;;-145.18;100.00;46658.44;5070053;28;19978;-75
2022/08/17 03:26:17;;;;;;;;;;;;;;;-145.18;100.00;46658.44;5070538;28;19917;-75
2022/08/17 03:28:43;;;;;;;;;;;;;;;-145.18;100.00;46656.50;5070238;28;19924;-75
2022/08/17 03:31:08;;;;;;;;;;;;;;;-145.18;100.00;46654.53;5070432;28;19961;-74
2022/08/17 03:33:33;;;;;;;;;;;;;;;-145.18;100.00;46652.59;5070184;28;19977;-75
2022/08/17 03:35:58;;;;;;;;;;;;;;;-145.18;100.00;46660.41;5070317;28;19916;-75
2022/08/17 03:38:24;;;;;;;;;;;;;;;-145.18;100.00;46660.41;5052103;28;19931;-75
2022/08/17 03:40:50;;;;;;;;;;;;;;;-145.18;100.00;46654.53;5070359;28;19920;-75
2022/08/17 03:43:16;;;;;;;;;;;;;;;-145.18;100.00;46654.53;5069828;28;19920;-75
2022/08/17 03:56:41;;;;;;;;;;;;;;;-145.18;100.00;46650.63;5070453;28;19971;-75
2022/08/17 03:59:07;;;;;;;;;;;;;;;-145.18;100.00;46642.81;5070032;28;20372;-76
2022/08/17 04:01:32;;;;;;;;;;;;;;;-145.18;100.00;46652.59;5070143;28;19926;-75
2022/08/17 04:03:57;;;;;;;;;;;;;;;-145.18;100.00;46642.81;5069563;28;19925;-75
2022/08/17 04:06:23;;;;;;;;;;;;;;;-145.18;100.00;46640.88;5070258;28;19921;-75
2022/08/17 04:08:48;;;;;;;;;;;;;;;-145.18;100.00;46640.88;5072858;28;20000;-75
2022/08/17 04:11:13;;;;;;;;;;;;;;;-145.18;100.00;46640.88;5073931;28;20156;-75
2022/08/17 04:13:38;;;;;;;;;;;;;;;-145.18;100.00;46638.91;5073306;28;19932;-75
2022/08/17 04:16:03;;;;;;;;;;;;;;;-145.18;100.00;46652.59;5073485;28;19931;-75
2022/08/17 04:18:29;;;;;;;;;;;;;;;-145.18;100.00;46638.91;5073140;28;19921;-74
2022/08/17 04:20:54;;;;;;;;;;;;;;;-145.18;100.00;46650.63;5073306;28;20311;-74
2022/08/17 04:23:19;;;;;;;;;;;;;;;-145.18;100.00;46640.88;5072973;28;19917;-74
2022/08/17 04:25:47;;;;;;;;;;;;;;;-145.18;100.00;46640.88;5073489;28;20398;-74
2022/08/17 04:28:15;;;;;;;;;;;;;;;-145.18;100.00;46636.94;5073046;28;19982;-74
2022/08/17 04:30:40;;;;;;;;;;;;;;;-145.18;100.00;46638.91;5073187;28;19928;-75
2022/08/17 04:33:08;;;;;;;;;;;;;;;-145.18;100.00;46640.88;5073062;28;19917;-74
2022/08/17 04:35:42;;;;;;;;;;;;;;;-145.18;100.00;46640.88;5073335;28;19922;-74
2022/08/17 04:38:08;;;;;;;;;;;;;;;-145.18;100.00;46640.88;5073011;28;19951;-73
2022/08/17 04:43:20;;;;;;;;;;;;;;;-145.18;100.00;46640.88;5072644;28;19923;-74
2022/08/17 04:45:47;;;;;;;;;;;;;;;-145.18;100.00;46638.91;5072850;28;19920;-74
2022/08/17 04:48:13;;;;;;;;;;;;;;;-145.18;100.00;46640.88;5073239;28;20011;-74
2022/08/17 04:50:41;;;;;;;;;;;;;;;-145.18;100.00;46640.88;5073105;28;19939;-74
2022/08/17 04:53:06;;;;;;;;;;;;;;;-145.18;100.00;46640.88;5072318;28;19921;-74
2022/08/17 04:55:32;;;;;;;;;;;;;;;-145.18;100.00;46640.88;5072677;28;20690;-73
2022/08/17 04:57:57;;;;;;;;;;;;;;;-145.18;100.00;46640.88;5072070;28;19974;-73
2022/08/17 05:00:24;;;;;;;;;;;;;;;-145.18;100.00;46642.81;5072908;28;19975;-73
2022/08/17 05:02:51;;;;;;;;;;;;;;;-145.18;100.00;46638.91;5071429;28;19920;-73
2022/08/17 05:05:20;;;;;;;;;;;;;;;-145.18;100.00;46638.91;5072647;28;19916;-73
2022/08/17 05:07:46;;;;;;;;;;;;;;;-145.18;100.00;46638.91;5071832;28;19967;-74
2022/08/17 05:10:12;;;;;;;;;;;;;;;-145.18;100.00;46640.88;5069289;28;19924;-75
2022/08/17 05:12:37;;;;;;;;;;;;;;;-145.18;100.00;46638.91;5079038;28;20292;-74
2022/08/17 05:15:02;;;;;;;;;;;;;;;-145.18;100.00;46640.88;5075313;28;19933;-74
2022/08/17 05:17:27;;;;;;;;;;;;;;;-145.18;100.00;46640.88;5038219;28;19921;-75
2022/08/17 05:19:53;;;;;;;;;;;;;;;-145.18;100.00;46638.91;5071656;28;20390;-75
2022/08/17 05:22:18;;;;;;;;;;;;;;;-145.18;100.00;46638.91;5071446;28;19970;-75
2022/08/17 05:24:43;;;;;;;;;;;;;;;-145.18;100.00;46642.81;5071760;28;19978;-75
2022/08/17 05:27:08;;;;;;;;;;;;;;;-145.18;100.00;46640.88;5071907;28;19924;-75
2022/08/17 05:29:34;;;;;;;;;;;;;;;-145.18;100.00;46640.88;5072178;28;19931;-75
2022/08/17 05:32:06;;;;;;;;;;;;;;;-145.18;100.00;46652.59;5068568;28;19932;-74
2022/08/17 05:34:31;;;;;;;;;;;;;;;-145.18;100.00;46640.88;5072304;28;20027;-75
2022/08/17 05:36:57;;;;;;;;;;;;;;;-145.18;100.00;46650.63;5072049;28;20420;-75
2022/08/17 05:39:22;;;;;;;;;;;;;;;-145.18;100.00;46642.81;5069691;28;20483;-75
2022/08/17 05:41:47;;;;;;;;;;;;;;;-145.18;100.00;46650.63;5070600;28;20018;-75
2022/08/17 05:44:13;;;;;;;;;;;;;;;-145.18;100.00;46650.63;5070535;28;20003;-75
2022/08/17 05:46:40;;;;;;;;;;;;;;;-145.18;100.00;46652.59;5071993;28;19919;-75
2022/08/17 05:49:07;;;;;;;;;;;;;;;-145.18;100.00;46652.59;5071003;28;19917;-75
2022/08/17 05:51:32;;;;;;;;;;;;;;;-145.18;100.00;46652.59;5053299;28;19916;-75
2022/08/17 05:54:16;;;;;;;;;;;;;;;-145.18;100.00;46654.53;5071368;28;19927;-75
2022/08/17 05:57:10;;;;;;;;;;;;;;;-145.18;100.00;46658.44;5086221;28;20295;-75
2022/08/17 05:59:50;;;;;;;;;;;;;;;-145.18;100.00;46652.59;5019292;28;19925;-75
2022/08/17 06:02:22;;;;;;;;;;;;;;;-145.18;100.00;46619.38;5091598;28;20291;-75
2022/08/17 06:05:13;;;;;;;;;;;;;;;-145.18;100.00;46652.59;5092129;28;19923;-75
2022/08/17 06:07:52;;;;;;;;;;;;;;;-145.18;100.00;46613.50;5073453;28;20279;-75
2022/08/17 06:10:30;;;;;;;;;;;;;;;-145.18;100.00;46617.41;5092207;28;19916;-75
2022/08/17 06:12:55;;;;;;;;;;;;;;;-145.18;100.00;46613.50;5081195;28;19998;-74
2022/08/17 06:15:34;;;;;;;;;;;;;;;-145.18;100.00;46619.38;5088321;28;19927;-75
2022/08/17 06:18:02;;;;;;;;;;;;;;;-145.18;100.00;46615.47;5091007;28;20330;-74
2022/08/17 06:20:31;;;;;;;;;;;;;;;-145.18;100.00;46621.31;5071475;28;20300;-74
2022/08/17 06:23:03;;;;;;;;;;;;;;;-145.18;100.00;46615.47;5069231;28;19916;-75
2022/08/17 06:25:30;;;;;;;;;;;;;;;-145.18;100.00;46619.38;5082390;28;20491;-75
2022/08/17 06:27:59;;;;;;;;;;;;;;;-145.18;100.00;46613.50;5090032;28;19923;-74
2022/08/17 06:30:27;;;;;;;;;;;;;;;-145.18;100.00;46621.31;5088840;28;19923;-74
2022/08/17 06:32:53;;;;;;;;;;;;;;;-145.18;100.00;46619.38;5089942;28;19916;-73
2022/08/17 06:35:36;;;;;;;;;;;;;;;-145.18;100.00;46619.38;5091562;28;20295;-72
2022/08/17 06:38:18;;;;;;;;;;;;;;;-145.18;100.00;46625.22;5091114;28;19916;-73
2022/08/17 06:40:54;;;;;;;;;;;;;;;-145.18;100.00;46621.31;5083104;28;19920;-73
2022/08/17 06:43:39;;;;;;;;;;;;;;;-145.18;100.00;46621.31;5068241;28;19917;-74
2022/08/17 06:46:14;;;;;;;;;;;;;;;-145.18;100.00;46627.19;5068588;28;19921;-73
2022/08/17 06:48:46;;;;;;;;;;;;;;;-145.18;100.00;46627.19;5068103;28;19920;-74
2022/08/17 06:51:22;;;;;;;;;;;;;;;-145.18;100.00;46623.28;5069653;28;19929;-73
2022/08/17 06:53:51;;;;;;;;;;;;;;;-145.18;100.00;46660.41;5070696;28;20257;-73
2022/08/17 06:56:26;;;;;;;;;;;;;;;-145.18;100.00;46660.41;5067944;28;19969;-74
2022/08/17 06:58:55;;;;;;;;;;;;;;;-145.18;100.00;46660.41;5070016;28;19932;-73
2022/08/17 07:01:23;;;;;;;;;;;;;;;-145.18;100.00;46631.09;5072379;28;19924;-73
2022/08/17 07:03:56;;;;;;;;;;;;;;;-145.18;100.00;46660.41;5069729;28;19921;-73
2022/08/17 07:06:23;;;;;;;;;;;;;;;-145.18;100.00;46660.41;5068519;28;19967;-73
2022/08/17 07:09:01;;;;;;;;;;;;;;;-145.18;100.00;46660.41;5066368;28;19917;-73
2022/08/17 07:11:32;;;;;;;;;;;;;;;-145.18;100.00;46629.13;5077487;28;20050;-73
2022/08/17 07:14:09;;;;;;;;;;;;;;;-145.18;100.00;46629.13;5061823;28;19961;-73
2022/08/17 07:16:35;;;;;;;;;;;;;;;-145.18;100.00;46631.09;5070575;28;19921;-73
2022/08/17 07:19:01;;;;;;;;;;;;;;;-145.18;100.00;46631.09;5069732;28;19927;-73
2022/08/17 07:21:53;;;;;;;;;;;;;;;-145.18;100.00;46660.41;5070548;28;19916;-73
2022/08/17 07:24:36;;;;;;;;;;;;;;;-145.18;100.00;46635.00;5056944;28;19927;-73
2022/08/17 07:27:21;;;;;;;;;;;;;;;-145.18;100.00;46660.41;5061647;28;19921;-73
2022/08/17 07:29:49;;;;;;;;;;;;;;;-145.18;100.00;46633.06;5066540;28;19921;-73
2022/08/17 07:32:17;;;;;;;;;;;;;;;-145.18;100.00;46631.09;5069921;28;20489;-74
2022/08/17 07:35:07;;;;;;;;;;;;;;;-145.18;100.00;46635.00;5069635;28;19925;-74
2022/08/17 07:37:33;;;;;;;;;;;;;;;-145.18;100.00;46633.06;5069743;28;19966;-73
2022/08/17 07:39:58;;;;;;;;;;;;;;;-145.18;100.00;46631.09;5069230;28;19956;-73
2022/08/17 07:42:23;;;;;;;;;;;;;;;-145.18;100.00;46635.00;5085535;28;19950;-74
2022/08/17 07:44:51;;;;;;;;;;;;;;;-145.18;100.00;46635.00;5094063;28;19920;-75
2022/08/17 07:50:01;;;;;;;;;;;;;;;-145.18;100.00;46633.06;5094546;28;19984;-75
2022/08/17 07:52:30;;;;;;;;;;;;;;;-145.18;100.00;46636.94;5094601;28;19924;-75
2022/08/17 07:54:55;;;;;;;;;;;;;;;-145.18;100.00;46631.09;5093929;28;20443;-75
2022/08/17 07:57:22;;;;;;;;;;;;;;;-145.18;100.00;46635.00;5094576;28;20030;-74
2022/08/17 07:59:59;;;;;;;;;;;;;;;-145.18;100.00;46635.00;5093707;28;20288;-75
2022/08/17 08:02:37;;;;;;;;;;;;;;;-145.18;100.00;46636.94;5093957;28;19920;-75
2022/08/17 08:05:03;;;;;;;;;;;;;;;-145.18;100.00;46635.00;5078535;28;19923;-75
2022/08/17 08:07:33;;;;;;;;;;;;;;;-145.18;100.00;46629.13;5069002;28;19916;-75
2022/08/17 08:10:01;;;;;;;;;;;;;;;-145.18;100.00;46633.06;5073406;28;20305;-75
2022/08/17 08:12:32;;;;;;;;;;;;;;;-145.18;100.00;46633.06;5074153;28;20488;-75
2022/08/17 08:15:06;;;;;;;;;;;;;;;-145.18;100.00;46660.41;5073230;28;19923;-75
2022/08/17 08:17:36;;;;;;;;;;;;;;;-145.18;100.00;46660.41;5073516;28;19923;-75
2022/08/17 08:20:07;;;;;;;;;;;;;;;-145.18;100.00;46660.41;5071644;28;19961;-75
2022/08/17 08:22:58;;;;;;;;;;;;;;;-145.18;100.00;46660.41;5073495;28;20350;-75
2022/08/17 08:25:25;;;;;;;;;;;;;;;-145.18;100.00;46660.41;5073406;28;19917;-75
2022/08/17 08:28:05;;;;;;;;;;;;;;;-145.18;100.00;46660.41;5072774;28;20365;-74
2022/08/17 08:30:33;;;;;;;;;;;;;;;-145.18;100.00;46625.22;5073313;28;19920;-75
2022/08/17 08:33:09;;;;;;;;;;;;;;;-145.18;100.00;46658.44;5072666;28;19924;-75
2022/08/17 08:35:43;;;;;;;;;;;;;;;-145.18;100.00;46623.28;5073658;28;20014;-75
2022/08/17 08:38:18;;;;;;;;;;;;;;;-145.18;100.00;46625.22;5072339;28;19923;-75
2022/08/17 08:40:47;;;;;;;;;;;;;;;-145.18;100.00;46623.28;5091349;28;20277;-75
2022/08/17 08:43:18;;;;;;;;;;;;;;;-145.18;100.00;46621.31;5092894;28;19927;-75
2022/08/17 08:45:43;;;;;;;;;;;;;;;-145.18;100.00;46619.38;5093195;28;19928;-75
2022/08/17 08:48:08;;;;;;;;;;;;;;;-145.18;100.00;46615.47;5093025;28;19927;-74
2022/08/17 08:50:39;;;;;;;;;;;;;;;-145.18;100.00;46617.41;5088493;28;19925;-74
2022/08/17 08:53:22;;;;;;;;;;;;;;;-145.18;100.00;46617.41;5064409;28;20093;-74
2022/08/17 08:55:53;;;;;;;;;;;;;;;-145.18;100.00;46617.41;5057548;28;20024;-74
2022/08/17 09:10:46;;;;;;;19.37;17.37;;;;;;;-145.18;100.00;46621.31;6193019;22;1290865;-75
2022/08/17 09:14:19;;;;;;;20.45;17.15;;;;;;;-145.18;100.00;46627.19;5087530;27;20393;-75
2022/08/17 09:16:49;;;;;;;20.33;17.57;;;;;;;-145.18;100.00;46627.19;5087809;28;20374;-74
2022/08/17 09:19:20;;;;;;;21.33;17.90;;;;;;;-145.18;100.00;46625.22;5088032;28;20036;-75
2022/08/17 09:22:25;;;;;;;19.60;17.43;;;;;;;-145.18;100.00;46625.22;5087244;28;20153;-74
2022/08/17 09:24:58;;;;;;;20.20;18.07;;;;;;;-145.18;100.00;46631.09;5076311;28;20064;-74
2022/08/17 09:27:46;;;;;;;22.40;19.03;;;;;;;-145.18;100.00;46631.09;5088520;28;20161;-74
2022/08/17 09:30:12;;;;;;;20.93;16.90;;;;;;;-145.18;100.00;46629.13;5088373;28;20539;-75
2022/08/17 09:32:48;;;;;;;19.10;17.03;;;;;;;-145.18;100.00;46629.13;5088311;28;20610;-75
2022/08/17 09:35:23;;;;;;;17.67;15.83;;;;;;;-145.18;100.00;46629.13;5088119;28;20032;-75
2022/08/17 09:37:58;;;;;;;17.80;15.88;;;;;;;-145.18;100.00;46636.94;5088690;28;20055;-74
2022/08/17 09:40:55;;;;;;;21.25;16.90;;;;;;;-145.18;100.00;46638.91;5087535;28;20085;-74
2022/08/17 09:43:47;;;;;;;19.38;16.65;;;;;;;-145.18;100.00;46633.06;5087428;28;20032;-74
2022/08/17 09:46:20;;;;;;;18.83;15.97;;;;;;;-145.18;100.00;46636.94;5088256;28;20060;-75
2022/08/17 09:49:20;;;;;;;22.33;16.90;;;;;;;-145.18;100.00;46636.94;5083314;28;20096;-76
2022/08/17 09:51:55;;;;;;;18.20;16.37;;;;;;;-145.18;100.00;46631.09;5069432;28;20077;-76
2022/08/17 09:54:33;;;;;;;18.33;16.38;;;;;;;-145.18;100.00;46636.94;5078739;28;20028;-76
2022/08/17 09:57:04;;;;;;;19.33;15.63;;;;;;;-145.18;100.00;46638.91;5080863;28;20028;-75
2022/08/17 09:59:56;;;;;;;18.07;14.90;;;;;;;-145.18;100.00;46642.81;5087591;28;20035;-76
2022/08/17 10:02:48;;;;;;;16.37;14.70;;;;;;;-145.18;100.00;46638.91;5087916;28;20472;-75
2022/08/17 10:05:21;;;;;;;15.30;13.77;;;;;;;-145.18;100.00;46646.72;5087624;28;20031;-76
2022/08/17 10:07:54;;;;;;;15.53;13.93;;;;;;;-145.18;100.00;46648.69;5088264;28;20029;-76
2022/08/17 10:10:34;;;;;;;14.60;12.97;;;;;;;-145.18;100.00;46650.63;5087569;28;20062;-76
2022/08/17 10:13:32;;;;;;;14.90;13.37;;;;;;;-145.18;100.00;46648.69;5088455;28;20435;-75
2022/08/17 10:16:06;;;;;;;14.87;12.93;;;;;;;-145.18;100.00;46652.59;5087622;28;20037;-76
2022/08/17 10:18:53;;;;;;;17.10;11.37;;;;;;;-145.18;100.00;46652.59;5087800;28;20070;-76
2022/08/17 10:27:02;;;;;;;10.30;9.23;;;;;;;-145.18;100.00;46670.16;5071333;28;20082;-75
2022/08/17 10:29:36;;;;;;;13.63;9.97;;;;;;;-145.18;100.00;46672.13;5073737;28;20036;-76
2022/08/17 10:32:09;;;;;;;11.13;8.97;;;;;;;-145.18;100.00;46670.16;5074113;28;20485;-76
2022/08/17 10:34:52;;;;;;;11.97;9.13;;;;;;;-145.18;100.00;46668.22;5073544;28;20052;-76
2022/08/17 10:37:31;;;;;;;10.57;9.33;;;;;;;-145.18;100.00;46666.25;5073909;28;20035;-76
2022/08/17 10:40:15;;;;;;;13.10;9.37;;;;;;;-145.18;100.00;46668.22;5073440;28;20102;-75
2022/08/17 10:43:01;;;;;;;15.53;10.67;;;;;;;-145.18;100.00;46668.22;5073712;28;20040;-76
2022/08/17 10:45:45;;;;;;;17.13;12.97;;;;;;;-145.18;100.00;46674.06;5072817;28;20036;-75
2022/08/17 10:48:11;;;;;;;16.30;12.40;;;;;;;-145.18;100.00;46672.13;5073763;28;20044;-75
2022/08/17 10:51:07;;;;;;;22.53;12.43;;;;;;;-145.18;100.00;46670.16;5072996;28;20516;-75
2022/08/17 10:53:37;;;;;;;15.95;12.88;;;;;;;-145.18;100.00;46668.22;5073246;28;20036;-75
2022/08/17 10:56:11;;;;;;;46.00;12.97;;;;;;;-145.18;100.00;46670.16;5072874;28;20086;-75
2022/08/17 10:58:50;;;;;;;14.67;13.17;;;;;;;-145.18;100.00;46668.22;5073029;28;20085;-75
2022/08/17 11:01:16;;;;;;;20.53;14.37;;;;;;;-145.18;100.00;46660.41;5073010;28;20081;-75
2022/08/17 11:03:56;;;;;;;16.83;14.80;;;;;;;-145.18;100.00;46656.50;5072906;28;20064;-74
2022/08/17 11:06:50;;;;;;;17.50;15.53;;;;;;;-145.18;100.00;46658.44;5072785;28;20086;-74
2022/08/17 11:09:37;;;;;;;21.03;13.97;;;;;;;-145.18;100.00;46652.59;5071490;28;20233;-74
2022/08/17 11:12:43;;;;;;;16.30;14.30;;;;;;;-145.18;100.00;46654.53;5071447;28;20109;-72
2022/08/17 11:15:13;;;;;;;21.30;15.88;;;;;;;-145.18;100.00;46648.69;5070498;28;20045;-71
2022/08/17 11:17:54;;;;;;;19.07;17.13;;;;;;;-145.18;100.00;46646.72;5072440;28;20027;-71
2022/08/17 11:20:51;;;;;;;18.93;16.70;;;;;;;-145.18;100.00;46640.88;5071720;28;20029;-71
2022/08/17 11:23:47;;;;;;;21.13;17.30;;;;;;;-145.18;100.00;46640.88;5057684;28;20075;-71
2022/08/17 11:26:37;;;;;;;22.33;18.02;;;;;;;-145.18;100.00;46640.88;5052242;28;20021;-70
2022/08/17 11:29:20;;;;;;;19.10;17.10;;;;;;;-145.18;100.00;46633.06;5052028;28;20033;-71
2022/08/17 11:32:12;;;;;;;20.33;16.67;;;;;;;-145.18;100.00;46635.00;5051714;28;20039;-71
2022/08/17 11:34:42;;;;;;;20.03;17.77;;;;;;;-145.18;100.00;46635.00;5051350;28;20044;-71
2022/08/17 11:37:35;;;;;;;23.17;17.57;;;;;;;-145.18;100.00;46633.06;5051030;28;20051;-70
2022/08/17 11:40:19;;;;;;;21.10;17.50;;;;;;;-145.18;100.00;46635.00;5051047;28;20047;-70
2022/08/17 11:42:57;;;;;;;20.93;18.57;;;;;;;-145.18;100.00;46631.09;5051604;28;20064;-70
2022/08/17 11:45:39;;;;;;;23.23;19.77;;;;;;;-145.18;100.00;46633.06;5050773;28;20078;-70
2022/08/17 11:51:35;;;;;;;21.50;19.30;;;;;;;-145.18;100.00;46629.13;5050794;28;20067;-71
2022/08/17 11:54:08;;;;;;;22.63;18.40;;;;;;;-145.18;100.00;46625.22;5051370;28;20037;-70
2022/08/17 11:56:49;;;;;;;23.10;19.43;;;;;;;-145.18;100.00;46631.09;5051017;28;20033;-71
2022/08/17 11:59:32;;;;;;;21.90;19.57;;;;;;;-145.18;100.00;46627.19;5050851;28;20033;-71
2022/08/17 12:02:29;;;;;;;24.77;20.30;;;;;;;-145.18;100.00;46627.19;5050665;28;20033;-71
2022/08/17 12:05:13;;;;;;;24.47;20.93;;;;;;;-145.18;100.00;46621.31;5059249;28;20435;-71
2022/08/17 12:07:46;;;;;;;26.00;23.30;;;;;;;-145.18;100.00;46623.28;5070971;28;20099;-72
2022/08/17 12:10:16;;;;;;;24.07;21.40;;;;;;;-145.18;100.00;46619.38;5068913;28;20060;-72
2022/08/17 12:12:43;;;;;;;23.03;20.60;;;;;;;-145.18;100.00;46621.31;5050743;28;20103;-72
2022/08/17 12:15:16;;;;;;;21.47;19.17;;;;;;;-145.18;100.00;46621.31;5050443;28;20051;-72
2022/08/17 12:17:50;;;;;;;22.63;20.23;;;;;;;-145.18;100.00;46621.31;5051056;28;20481;-72
2022/08/17 12:20:30;;;;;;;21.50;18.93;;;;;;;-145.18;100.00;46660.41;5050201;28;20040;-72
2022/08/17 12:23:38;;;;;;;22.00;18.93;;;;;;;-145.18;100.00;46627.19;5050296;28;20049;-72
2022/08/17 12:26:15;;;;;;;24.37;18.13;;;;;;;-145.18;100.00;46623.28;5049085;28;20131;-73
2022/08/17 12:28:45;;;;;;;20.47;18.17;;;;;;;-145.18;100.00;46660.41;5050484;28;20036;-73
2022/08/17 12:31:26;;;;;;;19.43;17.50;;;;;;;-145.18;100.00;46625.22;5051751;28;20749;-73
2022/08/17 12:33:52;;;;;;;20.47;18.30;;;;;;;-145.18;100.00;46629.13;5068617;28;20388;-73
2022/08/17 12:36:23;;;;;;;19.77;17.77;;;;;;;-145.18;100.00;46627.19;5069800;28;20028;-73
2022/08/17 12:39:06;;;;;;;19.70;17.80;;;;;;;-145.18;100.00;46627.19;5070285;28;20029;-74
2022/08/17 12:41:42;;;;;;;19.50;16.47;;;;;;;-145.18;100.00;46631.09;5063481;28;20484;-74
2022/08/17 12:44:12;;;;;;;21.30;19.02;;;;;;;-145.18;100.00;46629.13;5049642;28;20385;-74
2022/08/17 12:46:48;;;;;;;20.10;18.00;;;;;;;-145.18;100.00;46633.06;5049778;28;20021;-73
2022/08/17 12:49:35;;;;;;;21.10;17.85;;;;;;;-145.18;100.00;46633.06;5050064;28;20032;-73
2022/08/17 12:52:07;;;;;;;21.60;18.20;;;;;;;-145.18;100.00;46633.06;5048823;28;20033;-72
2022/08/17 12:54:40;;;;;;;21.33;19.07;;;;;;;-145.18;100.00;46627.19;5050112;28;20451;-71